createdAt,value
2023-02-24T00:01:41.754Z,6.30
2023-02-24T00:04:11.581Z,3.00
2023-02-24T00:06:40.884Z,2.73
2023-02-24T00:09:18.400Z,4.10
2023-02-24T00:11:55.797Z,4.03
2023-02-24T00:14:24.867Z,3.60
2023-02-24T00:16:53.352Z,3.03
2023-02-24T00:19:23.607Z,3.53
2023-02-24T00:21:51.752Z,4.30
2023-02-24T00:24:18.809Z,2.90
2023-02-24T00:26:48.476Z,3.63
2023-02-24T00:29:15.321Z,3.70
2023-02-24T00:31:43.320Z,3.67
2023-02-24T00:34:15.156Z,3.80
2023-02-24T00:36:42.103Z,3.53
2023-02-24T00:39:10.104Z,4.80
2023-02-24T00:41:40.223Z,4.70
2023-02-24T00:44:09.863Z,3.60
2023-02-24T00:46:42.398Z,3.27
2023-02-24T00:49:13.385Z,4.20
2023-02-24T00:51:42.075Z,4.40
2023-02-24T00:54:14.917Z,4.73
2023-02-24T00:56:47.665Z,4.40
2023-02-24T00:59:17.084Z,4.70
2023-02-24T01:01:45.396Z,4.00
2023-02-24T01:04:13.348Z,4.53
2023-02-24T01:06:45.328Z,5.00
2023-02-24T01:09:14.260Z,4.80
2023-02-24T01:12:00.732Z,4.87
2023-02-24T01:14:30.787Z,3.67
2023-02-24T01:16:58.699Z,6.30
2023-02-24T01:19:32.839Z,5.97
2023-02-24T01:22:01.987Z,5.10
2023-02-24T01:24:32.467Z,4.43
2023-02-24T01:26:59.220Z,4.60
2023-02-24T01:29:26.118Z,3.80
2023-02-24T01:31:58.185Z,4.77
2023-02-24T01:34:27.163Z,4.40
2023-02-24T01:36:54.538Z,3.53
2023-02-24T01:39:21.937Z,3.73
2023-02-24T01:41:53.078Z,4.23
2023-02-24T01:44:22.884Z,6.17
2023-02-24T01:46:53.017Z,3.87
2023-02-24T01:49:22.603Z,5.13
2023-02-24T01:52:12.582Z,4.57
2023-02-24T01:54:45.060Z,5.00
2023-02-24T01:57:16.684Z,3.83
2023-02-24T01:59:46.234Z,4.77
2023-02-24T02:02:14.835Z,5.47
2023-02-24T02:05:03.734Z,5.43
2023-02-24T02:07:30.744Z,5.13
2023-02-24T02:10:04.321Z,4.40
2023-02-24T02:12:37.081Z,4.13
2023-02-24T02:15:05.675Z,5.10
2023-02-24T02:17:51.378Z,4.80
2023-02-24T02:20:20.899Z,4.37
2023-02-24T02:23:20.003Z,4.10
2023-02-24T02:25:55.469Z,4.73
2023-02-24T02:28:47.269Z,4.47
2023-02-24T02:31:35.934Z,4.80
2023-02-24T02:34:21.742Z,3.10
2023-02-24T02:37:12.273Z,4.50
2023-02-24T02:39:58.916Z,4.60
2023-02-24T02:42:30.671Z,6.80
2023-02-24T02:45:10.823Z,4.67
2023-02-24T02:47:48.217Z,5.20
2023-02-24T02:50:20.662Z,4.70
2023-02-24T02:53:04.912Z,4.70
2023-02-24T02:55:37.822Z,5.03
2023-02-24T02:58:09.580Z,5.23
2023-02-24T03:01:02.036Z,4.40
2023-02-24T03:03:45.934Z,4.10
2023-02-24T03:06:28.121Z,4.70
2023-02-24T03:09:18.022Z,5.63
2023-02-24T03:11:53.129Z,5.73
2023-02-24T03:14:25.806Z,4.73
2023-02-24T03:16:55.920Z,6.97
2023-02-24T03:19:37.425Z,4.13
2023-02-24T03:22:24.917Z,5.87
2023-02-24T03:24:52.100Z,5.00
2023-02-24T03:27:31.694Z,5.80
2023-02-24T03:30:13.256Z,4.80
2023-02-24T03:32:55.942Z,5.17
2023-02-24T03:35:27.563Z,4.97
2023-02-24T03:37:57.796Z,4.30
2023-02-24T03:40:30.093Z,4.57
2023-02-24T03:43:19.582Z,5.07
2023-02-24T03:45:46.893Z,5.53
2023-02-24T03:48:14.469Z,3.60
2023-02-24T03:50:42.439Z,5.57
2023-02-24T03:53:31.191Z,4.47
2023-02-24T03:56:28.836Z,4.30
2023-02-24T03:59:13.250Z,4.73
2023-02-24T04:01:58.169Z,4.93
2023-02-24T04:04:37.781Z,5.23
2023-02-24T04:07:23.365Z,4.53
2023-02-24T04:10:02.671Z,4.70
2023-02-24T04:12:37.581Z,4.63
2023-02-24T04:15:29.677Z,6.20
2023-02-24T04:18:09.165Z,4.90
2023-02-24T04:20:37.181Z,4.33
2023-02-24T04:23:12.207Z,4.77
2023-02-24T04:25:42.978Z,5.40
2023-02-24T04:28:10.575Z,4.67
2023-02-24T04:30:42.483Z,5.03
2023-02-24T04:33:10.256Z,4.20
2023-02-24T04:35:37.913Z,4.80
2023-02-24T04:38:05.464Z,5.23
2023-02-24T04:40:32.542Z,4.63
2023-02-24T04:42:59.532Z,4.87
2023-02-24T04:45:28.610Z,4.40
2023-02-24T04:48:01.167Z,5.73
2023-02-24T04:50:38.360Z,4.20
2023-02-24T04:53:07.271Z,4.97
2023-02-24T04:55:40.317Z,3.70
2023-02-24T04:58:22.253Z,4.83
2023-02-24T05:00:52.879Z,3.77
2023-02-24T05:03:22.436Z,4.00
2023-02-24T05:05:58.272Z,4.93
2023-02-24T05:08:27.561Z,4.40
2023-02-24T05:10:56.790Z,5.50
2023-02-24T05:13:27.846Z,4.43
2023-02-24T05:15:58.119Z,4.57
2023-02-24T05:18:25.586Z,5.00
2023-02-24T05:21:13.385Z,3.33
2023-02-24T05:23:45.604Z,5.40
2023-02-24T05:26:20.534Z,3.80
2023-02-24T05:28:52.702Z,3.63
2023-02-24T05:31:24.022Z,3.80
2023-02-24T05:33:57.961Z,3.70
2023-02-24T05:36:27.307Z,3.90
2023-02-24T05:38:58.052Z,3.50
2023-02-24T05:41:32.653Z,4.80
2023-02-24T05:44:02.449Z,3.40
2023-02-24T05:46:32.570Z,3.97
2023-02-24T05:49:02.653Z,4.77
2023-02-24T05:51:38.897Z,3.97
2023-02-24T05:54:08.550Z,3.80
2023-02-24T05:56:37.406Z,2.70
2023-02-24T05:59:07.840Z,3.67
2023-02-24T06:01:45.811Z,3.90
2023-02-24T06:04:20.949Z,3.43
2023-02-24T06:06:52.643Z,3.13
2023-02-24T06:09:23.150Z,3.50
2023-02-24T06:11:50.393Z,3.60
2023-02-24T06:14:17.417Z,3.77
2023-02-24T06:16:44.142Z,2.87
2023-02-24T06:19:13.012Z,4.03
2023-02-24T06:21:41.921Z,2.90
2023-02-24T06:24:15.298Z,3.10
2023-02-24T06:26:45.549Z,3.50
2023-02-24T06:29:17.353Z,3.80
2023-02-24T06:31:44.443Z,2.80
2023-02-24T06:34:14.010Z,3.30
2023-02-24T06:36:43.146Z,3.03
2023-02-24T06:39:13.550Z,3.20
2023-02-24T06:41:40.760Z,3.43
2023-02-24T06:44:09.518Z,3.53
2023-02-24T06:46:36.732Z,3.53
2023-02-24T06:49:04.120Z,3.03
2023-02-24T06:51:30.969Z,2.90
2023-02-24T06:53:59.637Z,4.10
2023-02-24T06:56:27.594Z,3.70
2023-02-24T06:58:55.917Z,2.60
2023-02-24T07:01:25.768Z,3.00
2023-02-24T07:04:17.589Z,2.43
2023-02-24T07:06:52.244Z,2.90
2023-02-24T07:09:22.893Z,3.00
2023-02-24T07:11:53.549Z,2.83
2023-02-24T07:14:22.520Z,2.47
2023-02-24T07:16:54.481Z,2.70
2023-02-24T07:19:24.714Z,2.67
2023-02-24T07:21:59.836Z,2.70
2023-02-24T07:24:47.161Z,2.60
2023-02-24T07:27:23.027Z,4.13
2023-02-24T07:29:53.979Z,2.47
2023-02-24T07:32:25.509Z,3.27
2023-02-24T07:34:53.027Z,2.73
2023-02-24T07:37:20.729Z,2.83
2023-02-24T07:39:47.510Z,2.90
2023-02-24T07:42:14.220Z,2.87
2023-02-24T07:44:40.986Z,2.60
2023-02-24T07:47:08.441Z,2.47
2023-02-24T07:49:35.886Z,2.83
2023-02-24T07:52:02.641Z,2.70
2023-02-24T07:54:30.341Z,3.17
2023-02-24T07:56:59.233Z,4.10
2023-02-24T07:59:27.779Z,2.60
2023-02-24T08:01:56.155Z,3.13
2023-02-24T08:04:28.661Z,2.77
2023-02-24T08:06:56.245Z,2.97
2023-02-24T08:09:44.510Z,5.03
2023-02-24T08:12:21.839Z,3.03
2023-02-24T08:14:51.863Z,2.73
2023-02-24T08:17:26.516Z,2.33
2023-02-24T08:20:15.654Z,2.23
2023-02-24T08:22:52.291Z,2.50
2023-02-24T08:25:35.363Z,3.23
2023-02-24T08:28:08.413Z,2.40
2023-02-24T08:30:39.269Z,2.43
2023-02-24T08:33:09.154Z,3.50
2023-02-24T08:35:38.143Z,3.60
2023-02-24T08:38:09.935Z,3.37
2023-02-24T08:40:51.822Z,2.33
2023-02-24T08:43:30.728Z,2.70
2023-02-24T08:46:18.388Z,3.13
2023-02-24T08:48:48.693Z,2.97
2023-02-24T08:51:36.565Z,3.27
2023-02-24T08:54:15.390Z,2.60
2023-02-24T08:56:56.088Z,1.90
2023-02-24T08:59:29.344Z,2.70
2023-02-24T09:02:17.735Z,2.50
2023-02-24T09:07:28.113Z,2.80
2023-02-24T09:09:58.944Z,2.37
2023-02-24T09:12:29.095Z,2.73
2023-02-24T09:15:01.126Z,2.10
2023-02-24T09:17:44.988Z,2.87
2023-02-24T09:20:33.037Z,2.13
2023-02-24T09:23:07.628Z,2.20
2023-02-24T09:25:41.288Z,3.00
2023-02-24T09:28:17.380Z,2.20
2023-02-24T09:30:53.749Z,3.10
2023-02-24T09:33:25.058Z,2.50
2023-02-24T09:36:12.837Z,2.83
2023-02-24T09:39:00.376Z,5.07
2023-02-24T09:41:34.042Z,2.80
2023-02-24T09:44:18.440Z,3.30
2023-02-24T09:46:59.061Z,3.50
2023-02-24T09:49:47.276Z,2.90
2023-02-24T09:52:17.647Z,3.10
2023-02-24T09:55:10.815Z,3.50
2023-02-24T09:58:09.691Z,2.60
2023-02-24T10:00:44.319Z,2.80
2023-02-24T10:03:20.541Z,3.10
2023-02-24T10:06:12.386Z,3.20
2023-02-24T10:08:47.898Z,2.70
2023-02-24T10:11:15.617Z,2.47
2023-02-24T10:13:54.739Z,3.07
2023-02-24T10:16:26.642Z,3.20
2023-02-24T10:19:16.661Z,3.00
2023-02-24T10:22:08.197Z,4.17
2023-02-24T10:25:10.956Z,2.97
2023-02-24T10:27:53.110Z,3.10
2023-02-24T10:30:28.142Z,2.40
2023-02-24T10:32:58.939Z,3.10
2023-02-24T10:35:33.719Z,2.67
2023-02-24T10:38:06.905Z,2.97
2023-02-24T10:40:47.050Z,3.40
2023-02-24T10:43:18.918Z,2.90
2023-02-24T10:45:47.441Z,3.60
2023-02-24T10:48:43.094Z,2.90
2023-02-24T10:51:20.574Z,2.80
2023-02-24T10:54:09.660Z,3.13
2023-02-24T10:56:44.388Z,3.13
2023-02-24T10:59:40.907Z,3.20
2023-02-24T11:02:29.909Z,3.83
2023-02-24T11:04:58.674Z,3.37
2023-02-24T11:07:33.451Z,2.43
2023-02-24T11:10:14.075Z,3.00
2023-02-24T11:13:10.311Z,3.03
2023-02-24T11:16:02.419Z,3.37
2023-02-24T11:18:31.098Z,3.30
2023-02-24T11:21:11.056Z,3.50
2023-02-24T11:23:46.508Z,2.57
2023-02-24T11:26:22.853Z,3.67
2023-02-24T11:28:54.744Z,3.27
2023-02-24T11:31:36.557Z,3.10
2023-02-24T11:34:29.101Z,3.03
2023-02-24T11:37:14.551Z,3.27
2023-02-24T11:39:58.620Z,2.37
2023-02-24T11:42:34.044Z,2.63
2023-02-24T11:45:31.950Z,2.47
2023-02-24T11:48:17.546Z,2.73
2023-02-24T11:50:49.273Z,2.93
2023-02-24T11:53:23.116Z,3.33
2023-02-24T11:56:19.904Z,2.97
2023-02-24T11:58:58.167Z,3.27
2023-02-24T12:01:49.823Z,4.50
2023-02-24T12:04:31.337Z,3.17
2023-02-24T12:07:22.312Z,4.00
2023-02-24T12:10:06.924Z,4.07
2023-02-24T12:12:59.871Z,3.43
2023-02-24T12:15:43.572Z,3.70
2023-02-24T12:18:18.287Z,3.80
2023-02-24T12:20:55.219Z,4.53
2023-02-24T12:23:41.133Z,3.60
2023-02-24T12:26:10.786Z,4.20
2023-02-24T12:28:49.483Z,3.63
2023-02-24T12:31:41.806Z,4.40
2023-02-24T12:34:30.745Z,4.40
2023-02-24T12:37:07.879Z,4.40
2023-02-24T12:39:43.571Z,4.60
2023-02-24T12:42:34.884Z,5.23
2023-02-24T12:45:16.524Z,5.27
2023-02-24T12:48:30.250Z,3.60
2023-02-24T12:51:03.274Z,5.30
2023-02-24T12:54:05.068Z,3.67
2023-02-24T12:56:55.991Z,4.03
2023-02-24T12:59:28.150Z,4.13
2023-02-24T13:02:06.706Z,5.10
2023-02-24T13:07:22.176Z,4.23
2023-02-24T13:09:55.862Z,4.40
2023-02-24T13:12:32.836Z,5.60
2023-02-24T13:14:59.928Z,5.60
2023-02-24T13:17:27.233Z,4.97
2023-02-24T13:19:55.545Z,5.03
2023-02-24T13:22:27.003Z,5.50
2023-02-24T13:25:07.461Z,6.07
2023-02-24T13:27:41.060Z,5.97
2023-02-24T13:30:26.756Z,6.43
2023-02-24T13:33:18.254Z,6.90
2023-02-24T13:35:47.247Z,7.10
2023-02-24T13:38:25.680Z,7.60
2023-02-24T13:40:52.558Z,8.00
2023-02-24T13:43:26.426Z,7.27
2023-02-24T13:45:59.384Z,8.90
2023-02-24T13:48:44.495Z,7.63
2023-02-24T13:51:30.018Z,8.87
2023-02-24T13:54:18.772Z,9.63
2023-02-24T13:56:56.542Z,8.10
2023-02-24T13:59:44.880Z,8.43
2023-02-24T14:02:21.494Z,8.33
2023-02-24T14:04:48.453Z,10.20
2023-02-24T14:07:28.383Z,10.70
2023-02-24T14:10:02.241Z,12.33
2023-02-24T14:12:36.705Z,12.43
2023-02-24T14:15:04.550Z,10.93
2023-02-24T14:17:35.986Z,13.27
2023-02-24T14:20:15.694Z,13.10
2023-02-24T14:22:50.817Z,13.53
2023-02-24T14:25:18.248Z,15.90
2023-02-24T14:27:49.639Z,14.67
2023-02-24T14:30:39.067Z,16.93
2023-02-24T14:33:07.959Z,14.73
2023-02-24T14:35:47.559Z,14.97
2023-02-24T14:38:35.822Z,14.60
2023-02-24T14:41:08.118Z,16.90
2023-02-24T14:43:41.895Z,14.70
2023-02-24T14:46:08.952Z,16.80
2023-02-24T14:48:36.363Z,14.80
2023-02-24T14:51:11.985Z,15.10
2023-02-24T14:53:48.621Z,16.17
2023-02-24T14:56:16.071Z,15.60
2023-02-24T14:58:51.310Z,16.70
2023-02-24T15:01:31.399Z,16.47
2023-02-24T15:04:01.600Z,15.30
2023-02-24T15:06:33.294Z,16.23
2023-02-24T15:09:04.921Z,17.27
2023-02-24T15:11:32.852Z,15.50
2023-02-24T15:14:06.256Z,15.73
2023-02-24T15:16:42.798Z,16.00
2023-02-24T15:19:32.409Z,16.70
2023-02-24T15:21:59.578Z,17.50
2023-02-24T15:24:34.925Z,17.20
2023-02-24T15:27:13.859Z,15.80
2023-02-24T15:29:43.337Z,15.20
2023-02-24T15:32:21.202Z,15.97
2023-02-24T15:34:48.435Z,14.20
2023-02-24T15:37:24.076Z,13.43
2023-02-24T15:39:54.658Z,13.90
2023-02-24T15:42:28.718Z,13.43
2023-02-24T15:44:58.143Z,13.50
2023-02-24T15:47:32.572Z,13.10
2023-02-24T15:49:59.661Z,12.30
2023-02-24T15:52:28.723Z,11.23
2023-02-24T15:54:58.069Z,12.27
2023-02-24T15:57:25.536Z,11.30
2023-02-24T15:59:52.518Z,11.40
2023-02-24T16:02:21.672Z,13.30
2023-02-24T16:04:51.507Z,11.47
2023-02-24T16:07:24.413Z,9.90
2023-02-24T16:09:54.361Z,8.33
2023-02-24T16:12:29.401Z,9.13
2023-02-24T16:15:05.939Z,8.70
2023-02-24T16:17:41.491Z,10.47
2023-02-24T16:20:18.286Z,9.57
2023-02-24T16:22:45.217Z,7.90
2023-02-24T16:25:16.441Z,8.90
2023-02-24T16:27:43.371Z,8.70
2023-02-24T16:30:22.618Z,6.17
2023-02-24T16:32:50.011Z,10.20
2023-02-24T16:35:18.295Z,6.70
2023-02-24T16:37:47.200Z,6.60
2023-02-24T16:40:37.729Z,5.90
2023-02-24T16:43:05.108Z,5.20
2023-02-24T16:45:32.125Z,5.30
2023-02-24T16:48:02.511Z,4.50
2023-02-24T16:50:37.186Z,4.40
2023-02-24T16:53:03.940Z,4.10
2023-02-24T16:55:30.649Z,4.87
2023-02-24T16:57:57.521Z,4.00
2023-02-24T17:00:24.644Z,3.97
2023-02-24T17:02:52.493Z,3.60
2023-02-24T17:05:24.857Z,4.67
2023-02-24T17:07:54.039Z,3.20
2023-02-24T17:10:22.293Z,3.90
2023-02-24T17:12:48.991Z,4.13
2023-02-24T17:15:19.644Z,3.63
2023-02-24T17:17:47.076Z,4.20
2023-02-24T17:20:16.061Z,3.90
2023-02-24T17:22:44.000Z,4.00
2023-02-24T17:25:18.795Z,3.17
2023-02-24T17:27:45.590Z,3.90
2023-02-24T17:30:18.229Z,2.80
2023-02-24T17:32:47.786Z,3.20
2023-02-24T17:35:14.547Z,2.50
2023-02-24T17:37:41.650Z,2.10
2023-02-24T17:40:08.866Z,3.20
2023-02-24T17:42:35.956Z,3.63
2023-02-24T17:45:03.270Z,3.07
2023-02-24T17:47:31.740Z,2.80
2023-02-24T17:49:58.747Z,2.60
2023-02-24T17:52:25.691Z,3.27
2023-02-24T17:54:52.452Z,7.63
2023-02-24T17:57:19.199Z,5.30
2023-02-24T17:59:46.229Z,4.17
2023-02-24T18:02:15.095Z,3.40
2023-02-24T18:07:14.182Z,2.87
2023-02-24T18:09:41.093Z,3.83
2023-02-24T18:12:08.309Z,2.97
2023-02-24T18:14:35.281Z,3.50
2023-02-24T18:17:02.011Z,3.27
2023-02-24T18:19:30.451Z,3.63
2023-02-24T18:21:57.204Z,3.33
2023-02-24T18:24:23.972Z,2.73
2023-02-24T18:26:50.723Z,2.97
2023-02-24T18:29:17.622Z,3.00
2023-02-24T18:31:44.693Z,2.70
2023-02-24T18:34:11.516Z,3.87
2023-02-24T18:36:38.356Z,2.83
2023-02-24T18:39:05.457Z,3.30
2023-02-24T18:41:32.513Z,1.57
2023-02-24T18:43:59.367Z,1.50
2023-02-24T18:46:27.107Z,2.37
2023-02-24T18:48:55.197Z,1.43
2023-02-24T18:51:26.278Z,3.27
2023-02-24T18:53:53.494Z,2.97
2023-02-24T18:56:23.349Z,2.83
2023-02-24T18:58:52.681Z,3.17
2023-02-24T19:01:38.649Z,3.20
2023-02-24T19:04:06.800Z,2.87
2023-02-24T19:06:35.393Z,3.10
2023-02-24T19:09:10.487Z,2.50
2023-02-24T19:11:39.188Z,2.17
2023-02-24T19:14:07.632Z,2.60
2023-02-24T19:16:34.744Z,3.43
2023-02-24T19:19:01.560Z,2.60
2023-02-24T19:21:30.443Z,2.90
2023-02-24T19:24:04.075Z,2.30
2023-02-24T19:26:37.624Z,2.37
2023-02-24T19:29:06.058Z,1.90
2023-02-24T19:31:34.256Z,1.80
2023-02-24T19:37:00.774Z,2.63
2023-02-24T19:40:03.000Z,3.13
2023-02-24T19:42:34.714Z,2.53
2023-02-24T19:45:02.001Z,2.30
2023-02-24T19:47:31.873Z,1.77
2023-02-24T19:50:02.455Z,2.60
2023-02-24T19:52:29.246Z,5.23
2023-02-24T19:54:58.043Z,5.53
2023-02-24T19:57:24.872Z,2.77
2023-02-24T19:59:51.963Z,3.50
2023-02-24T20:02:19.617Z,2.60
2023-02-24T20:07:17.842Z,3.73
2023-02-24T20:09:44.786Z,3.47
2023-02-24T20:12:11.576Z,2.67
2023-02-24T20:14:38.332Z,2.90
2023-02-24T20:17:05.138Z,2.97
2023-02-24T20:19:33.496Z,3.10
2023-02-24T20:22:01.410Z,2.97
2023-02-24T20:24:28.118Z,3.37
2023-02-24T20:26:54.849Z,4.00
2023-02-24T20:29:22.151Z,3.67
2023-02-24T20:31:49.631Z,4.27
2023-02-24T20:34:16.777Z,3.83
2023-02-24T20:36:43.883Z,5.07
2023-02-24T20:39:14.051Z,4.57
2023-02-24T20:41:41.193Z,3.77
2023-02-24T20:44:08.556Z,2.63
2023-02-24T20:46:35.924Z,3.60
2023-02-24T20:49:07.288Z,3.57
2023-02-24T20:51:37.223Z,3.23
2023-02-24T20:54:05.991Z,3.60
2023-02-24T20:56:36.474Z,3.40
2023-02-24T20:59:13.422Z,3.70
2023-02-24T21:01:40.889Z,2.70
2023-02-24T21:04:08.887Z,3.43
2023-02-24T21:06:36.837Z,4.07
2023-02-24T21:09:03.977Z,3.70
2023-02-24T21:11:30.820Z,3.50
2023-02-24T21:13:58.661Z,2.60
2023-02-24T21:16:27.114Z,3.73
2023-02-24T21:18:55.905Z,3.20
2023-02-24T21:21:22.855Z,3.57
2023-02-24T21:23:50.492Z,3.27
2023-02-24T21:26:18.080Z,3.33
2023-02-24T21:28:45.218Z,3.20
2023-02-24T21:31:15.872Z,3.60
2023-02-24T21:33:43.319Z,4.07
2023-02-24T21:36:13.988Z,3.03
2023-02-24T21:38:41.532Z,2.97
2023-02-24T21:41:14.946Z,2.97
2023-02-24T21:43:43.605Z,3.60
2023-02-24T21:46:11.376Z,3.43
2023-02-24T21:48:38.854Z,3.73
2023-02-24T21:51:08.723Z,2.93
2023-02-24T21:53:39.661Z,4.27
2023-02-24T21:56:16.458Z,3.40
2023-02-24T21:58:50.605Z,4.90
2023-02-24T22:01:24.746Z,3.83
2023-02-24T22:03:57.668Z,3.40
2023-02-24T22:06:26.213Z,3.33
2023-02-24T22:08:54.812Z,4.33
2023-02-24T22:11:22.323Z,3.67
2023-02-24T22:13:49.200Z,4.63
2023-02-24T22:16:19.443Z,3.60
2023-02-24T22:18:47.380Z,3.83
2023-02-24T22:21:19.570Z,3.70
2023-02-24T22:23:48.834Z,4.00
2023-02-24T22:26:19.985Z,5.73
2023-02-24T22:28:49.393Z,3.73
2023-02-24T22:31:19.227Z,3.50
2023-02-24T22:33:46.424Z,3.30
2023-02-24T22:36:16.452Z,4.63
2023-02-24T22:38:45.621Z,4.03
2023-02-24T22:41:15.605Z,5.23
2023-02-24T22:43:43.092Z,4.30
2023-02-24T22:46:16.728Z,4.87
2023-02-24T22:48:44.184Z,5.40
2023-02-24T22:51:12.355Z,3.43
2023-02-24T22:53:41.924Z,3.20
2023-02-24T22:56:11.440Z,4.67
2023-02-24T22:58:38.466Z,3.20
2023-02-24T23:01:10.634Z,4.07
2023-02-24T23:03:37.686Z,3.93
2023-02-24T23:06:07.023Z,3.10
2023-02-24T23:08:36.571Z,2.53
2023-02-24T23:11:14.914Z,2.57
2023-02-24T23:13:44.727Z,3.40
2023-02-24T23:16:15.054Z,3.13
2023-02-24T23:18:48.504Z,3.00
2023-02-24T23:21:16.187Z,3.80
2023-02-24T23:23:42.902Z,3.10
2023-02-24T23:26:09.679Z,3.80
2023-02-24T23:28:36.389Z,3.20
2023-02-24T23:31:03.640Z,2.90
2023-02-24T23:33:30.455Z,3.57
2023-02-24T23:36:03.481Z,3.87
2023-02-24T23:38:36.831Z,3.17
2023-02-24T23:41:09.321Z,2.40
2023-02-24T23:43:36.235Z,3.17
2023-02-24T23:46:05.811Z,3.10
2023-02-24T23:48:32.782Z,2.13
2023-02-24T23:51:03.064Z,2.93
2023-02-24T23:53:30.287Z,1.70
2023-02-24T23:55:58.035Z,2.80
2023-02-24T23:58:27.168Z,2.23
